createdAt,value
2018-01-11T00:01:50.778Z,1.87
2018-01-11T00:04:18.198Z,2.27
2018-01-11T00:06:44.982Z,2.20
2018-01-11T00:09:12.449Z,2.13
2018-01-11T00:11:40.214Z,2.00
2018-01-11T00:14:07.789Z,2.50
2018-01-11T00:16:35.345Z,2.57
2018-01-11T00:19:02.921Z,2.40
2018-01-11T00:21:30.564Z,2.40
2018-01-11T00:23:57.289Z,2.10
2018-01-11T00:26:24.281Z,2.23
2018-01-11T00:28:51.618Z,2.23
2018-01-11T00:31:18.289Z,2.40
2018-01-11T00:33:44.869Z,2.20
2018-01-11T00:36:11.932Z,1.70
2018-01-11T00:38:38.718Z,2.00
2018-01-11T00:41:06.278Z,1.93
2018-01-11T00:43:33.593Z,2.03
2018-01-11T00:46:01.769Z,2.33
2018-01-11T00:48:28.657Z,2.20
2018-01-11T00:50:56.030Z,2.77
2018-01-11T00:53:23.609Z,2.03
2018-01-11T00:55:50.310Z,2.50
2018-01-11T00:58:16.966Z,2.30
2018-01-11T01:00:43.866Z,2.27
2018-01-11T01:03:10.671Z,2.27
2018-01-11T01:05:38.111Z,3.40
2018-01-11T01:08:05.118Z,2.77
2018-01-11T01:10:32.046Z,2.23
2018-01-11T01:12:59.822Z,2.40
2018-01-11T01:15:27.236Z,2.20
2018-01-11T01:17:54.121Z,2.43
2018-01-11T01:20:21.798Z,2.80
2018-01-11T01:22:49.569Z,3.20
2018-01-11T01:25:17.225Z,2.53
2018-01-11T01:27:44.654Z,2.67
2018-01-11T01:30:11.330Z,2.47
2018-01-11T01:32:38.900Z,2.43
2018-01-11T01:35:06.335Z,4.70
2018-01-11T01:37:33.214Z,3.40
2018-01-11T01:40:00.646Z,2.57
2018-01-11T01:42:27.315Z,2.10
2018-01-11T01:44:54.689Z,2.50
2018-01-11T01:47:21.414Z,2.40
2018-01-11T01:49:48.916Z,1.83
2018-01-11T01:52:15.694Z,2.50
2018-01-11T01:54:42.321Z,2.63
2018-01-11T01:57:09.885Z,2.60
2018-01-11T01:59:36.886Z,2.33
2018-01-11T02:02:04.662Z,1.97
2018-01-11T02:04:32.430Z,2.27
2018-01-11T02:07:01.121Z,2.10
2018-01-11T02:09:29.086Z,2.47
2018-01-11T02:11:56.849Z,1.90
2018-01-11T02:14:24.822Z,2.13
2018-01-11T02:16:52.602Z,2.30
2018-01-11T02:19:20.301Z,2.10
2018-01-11T02:21:47.417Z,2.00
2018-01-11T02:24:15.184Z,2.10
2018-01-11T02:26:42.966Z,1.93
2018-01-11T02:29:10.630Z,2.13
2018-01-11T02:31:38.707Z,2.37
2018-01-11T02:34:06.582Z,1.80
2018-01-11T02:36:34.242Z,2.30
2018-01-11T02:39:03.049Z,2.20
2018-01-11T02:41:30.297Z,2.23
2018-01-11T02:43:58.057Z,2.00
2018-01-11T02:46:25.924Z,1.70
2018-01-11T02:48:52.878Z,2.33
2018-01-11T02:51:20.865Z,2.10
2018-01-11T02:53:48.633Z,2.60
2018-01-11T02:56:16.601Z,2.50
2018-01-11T02:58:44.465Z,2.17
2018-01-11T03:01:12.134Z,2.10
2018-01-11T03:03:41.442Z,2.17
2018-01-11T03:06:09.414Z,2.33
2018-01-11T03:08:37.182Z,2.23
2018-01-11T03:11:05.065Z,2.63
2018-01-11T03:13:33.551Z,2.00
2018-01-11T03:16:01.417Z,2.20
2018-01-11T03:18:29.185Z,2.40
2018-01-11T03:20:58.278Z,2.70
2018-01-11T03:23:26.353Z,2.30
2018-01-11T03:25:54.127Z,2.33
2018-01-11T03:28:21.985Z,2.30
2018-01-11T03:30:49.043Z,2.30
2018-01-11T03:33:17.029Z,2.50
2018-01-11T03:35:44.897Z,2.30
2018-01-11T03:38:12.661Z,1.97
2018-01-11T03:40:39.715Z,2.10
2018-01-11T03:43:07.485Z,1.97
2018-01-11T03:45:35.150Z,2.30
2018-01-11T03:48:03.025Z,2.50
2018-01-11T03:50:30.801Z,2.30
2018-01-11T03:52:58.662Z,2.70
2018-01-11T03:55:26.441Z,2.83
2018-01-11T03:57:54.097Z,3.20
2018-01-11T04:00:21.870Z,3.60
2018-01-11T04:02:49.658Z,3.27
2018-01-11T04:05:16.694Z,2.40
2018-01-11T04:07:44.461Z,2.40
2018-01-11T04:10:12.545Z,3.20
2018-01-11T04:12:40.310Z,4.47
2018-01-11T04:15:08.078Z,3.53
2018-01-11T04:17:35.841Z,3.77
2018-01-11T04:20:03.494Z,3.63
2018-01-11T04:22:30.638Z,4.60
2018-01-11T04:24:57.616Z,3.87
2018-01-11T04:27:25.378Z,3.23
2018-01-11T04:29:53.158Z,3.60
2018-01-11T04:32:20.903Z,2.90
2018-01-11T04:34:47.982Z,2.97
2018-01-11T04:37:16.059Z,4.00
2018-01-11T04:39:43.921Z,3.50
2018-01-11T04:42:11.902Z,2.93
2018-01-11T04:44:39.870Z,4.50
2018-01-11T04:47:07.745Z,4.00
2018-01-11T04:49:35.614Z,3.37
2018-01-11T04:52:03.497Z,3.27
2018-01-11T04:54:31.461Z,3.07
2018-01-11T04:56:59.334Z,3.00
2018-01-11T04:59:27.102Z,3.10
2018-01-11T05:01:55.270Z,3.90
2018-01-11T05:04:23.009Z,5.13
2018-01-11T05:06:50.010Z,3.90
2018-01-11T05:09:17.766Z,2.80
2018-01-11T05:11:45.438Z,2.63
2018-01-11T05:14:13.342Z,3.30
2018-01-11T05:16:40.465Z,2.53
2018-01-11T05:19:08.130Z,4.30
2018-01-11T05:21:36.206Z,3.83
2018-01-11T05:24:04.090Z,3.23
2018-01-11T05:26:31.702Z,3.30
2018-01-11T05:28:59.001Z,2.90
2018-01-11T05:31:26.673Z,2.80
2018-01-11T05:33:54.385Z,3.00
2018-01-11T05:36:21.694Z,3.40
2018-01-11T05:38:49.576Z,3.10
2018-01-11T05:41:17.945Z,2.50
2018-01-11T05:43:44.841Z,2.37
2018-01-11T05:46:11.850Z,2.73
2018-01-11T05:48:39.618Z,3.20
2018-01-11T05:51:07.297Z,4.70
2018-01-11T05:53:35.257Z,5.50
2018-01-11T05:56:03.137Z,4.10
2018-01-11T05:58:30.905Z,2.47
2018-01-11T06:00:58.878Z,2.23
2018-01-11T06:03:26.750Z,2.50
2018-01-11T06:05:54.802Z,2.90
2018-01-11T06:08:21.873Z,2.10
2018-01-11T06:10:49.542Z,2.60
2018-01-11T06:13:17.505Z,2.87
2018-01-11T06:15:45.281Z,3.63
2018-01-11T06:18:13.265Z,2.60
2018-01-11T06:20:41.137Z,2.90
2018-01-11T06:23:08.998Z,4.20
2018-01-11T06:25:36.769Z,2.83
2018-01-11T06:28:04.439Z,3.50
2018-01-11T06:30:32.828Z,3.03
2018-01-11T06:33:00.708Z,3.10
2018-01-11T06:35:27.638Z,3.50
2018-01-11T06:37:55.414Z,3.90
2018-01-11T06:40:23.182Z,5.00
2018-01-11T06:42:51.976Z,3.73
2018-01-11T06:45:19.934Z,4.30
2018-01-11T06:47:46.802Z,4.13
2018-01-11T06:50:14.607Z,4.13
2018-01-11T06:52:41.617Z,3.60
2018-01-11T06:55:09.390Z,3.70
2018-01-11T06:57:37.366Z,5.07
2018-01-11T07:00:05.126Z,4.10
2018-01-11T07:02:33.105Z,5.20
2018-01-11T07:05:00.844Z,5.43
2018-01-11T07:07:28.022Z,4.63
2018-01-11T07:09:55.902Z,4.33
2018-01-11T07:12:23.673Z,3.30
2018-01-11T07:14:51.545Z,4.10
2018-01-11T07:17:19.521Z,4.07
2018-01-11T07:19:47.686Z,4.80
2018-01-11T07:22:15.558Z,5.00
2018-01-11T07:24:43.238Z,5.63
2018-01-11T07:27:11.110Z,6.10
2018-01-11T07:29:38.870Z,4.00
2018-01-11T07:32:06.742Z,3.73
2018-01-11T07:34:34.366Z,3.17
2018-01-11T07:37:01.366Z,3.80
2018-01-11T07:39:29.025Z,4.30
2018-01-11T07:41:56.703Z,3.93
2018-01-11T07:44:24.665Z,3.90
2018-01-11T07:46:52.441Z,4.40
2018-01-11T07:49:20.329Z,3.40
2018-01-11T07:51:47.284Z,3.67
2018-01-11T07:54:14.425Z,3.43
2018-01-11T07:56:42.191Z,3.00
2018-01-11T07:59:10.062Z,3.13
2018-01-11T08:01:37.717Z,3.57
2018-01-11T08:04:05.497Z,4.20
2018-01-11T08:06:33.263Z,4.40
2018-01-11T08:09:01.025Z,3.50
2018-01-11T08:11:28.897Z,9.80
2018-01-11T08:13:56.690Z,5.40
2018-01-11T08:16:23.734Z,5.53
2018-01-11T08:18:51.710Z,8.30
2018-01-11T08:21:19.463Z,15.23
2018-01-11T08:23:47.438Z,8.63
2018-01-11T08:26:15.105Z,8.30
2018-01-11T08:28:42.884Z,5.90
2018-01-11T08:31:10.753Z,14.00
2018-01-11T08:33:38.424Z,8.70
2018-01-11T08:36:06.281Z,7.30
2018-01-11T08:38:34.162Z,9.07
2018-01-11T08:41:17.989Z,9.53
2018-01-11T08:43:45.917Z,9.10
2018-01-11T08:46:12.926Z,7.60
2018-01-11T08:48:40.799Z,8.10
2018-01-11T08:51:08.246Z,10.33
2018-01-11T08:53:36.234Z,8.60
2018-01-11T08:56:03.281Z,7.93
2018-01-11T08:58:31.246Z,8.70
2018-01-11T09:00:59.128Z,7.73
2018-01-11T09:03:26.990Z,7.43
2018-01-11T09:05:54.713Z,9.43
2018-01-11T09:08:21.609Z,9.30
2018-01-11T09:10:49.385Z,8.57
2018-01-11T09:13:17.125Z,9.33
2018-01-11T09:15:44.209Z,11.60
2018-01-11T09:18:12.078Z,9.53
2018-01-11T09:20:39.737Z,9.37
2018-01-11T09:23:07.502Z,13.90
2018-01-11T09:25:35.377Z,16.30
2018-01-11T09:28:03.058Z,13.10
2018-01-11T09:30:30.918Z,9.23
2018-01-11T09:32:58.693Z,8.67
2018-01-11T09:35:26.550Z,10.30
2018-01-11T09:37:54.430Z,11.00
2018-01-11T09:40:22.311Z,9.93
2018-01-11T09:42:50.076Z,13.73
2018-01-11T09:45:17.964Z,10.50
2018-01-11T09:47:44.993Z,16.50
2018-01-11T09:50:12.885Z,9.77
2018-01-11T09:52:40.025Z,13.20
2018-01-11T09:55:07.800Z,9.30
2018-01-11T09:57:35.668Z,10.33
2018-01-11T10:00:03.544Z,9.20
2018-01-11T10:02:31.605Z,10.00
2018-01-11T10:04:59.481Z,8.30
2018-01-11T10:07:27.454Z,8.47
2018-01-11T10:09:55.341Z,8.63
2018-01-11T10:12:22.278Z,7.70
2018-01-11T10:14:50.462Z,8.70
2018-01-11T10:17:18.230Z,6.30
2018-01-11T10:19:46.405Z,7.40
2018-01-11T10:22:14.334Z,6.80
2018-01-11T10:24:41.334Z,5.60
2018-01-11T10:27:09.390Z,6.40
2018-01-11T10:29:37.377Z,8.53
2018-01-11T10:32:05.351Z,8.33
2018-01-11T10:34:32.401Z,9.63
2018-01-11T10:37:01.041Z,6.60
2018-01-11T10:39:28.046Z,7.73
2018-01-11T10:41:55.808Z,5.60
2018-01-11T10:44:22.759Z,7.63
2018-01-11T10:46:49.823Z,6.80
2018-01-11T10:49:17.585Z,5.97
2018-01-11T10:51:45.244Z,7.50
2018-01-11T10:54:13.134Z,5.60
2018-01-11T10:56:40.936Z,7.40
2018-01-11T10:59:07.954Z,6.30
2018-01-11T11:01:43.897Z,5.17
2018-01-11T11:04:11.057Z,8.03
2018-01-11T11:06:38.926Z,9.00
2018-01-11T11:09:07.521Z,11.30
2018-01-11T11:11:35.189Z,9.80
2018-01-11T11:14:03.565Z,10.40
2018-01-11T11:16:31.335Z,9.27
2018-01-11T11:19:01.154Z,8.50
2018-01-11T11:21:28.921Z,9.13
2018-01-11T11:23:56.695Z,8.03
2018-01-11T11:26:23.848Z,9.17
2018-01-11T11:28:51.505Z,8.90
2018-01-11T11:31:19.378Z,8.30
2018-01-11T11:33:46.325Z,7.47
2018-01-11T11:36:13.014Z,8.03
2018-01-11T11:38:40.134Z,9.07
2018-01-11T11:41:08.129Z,8.60
2018-01-11T11:43:35.470Z,9.30
2018-01-11T11:46:03.235Z,9.40
2018-01-11T11:48:31.112Z,8.13
2018-01-11T11:50:59.182Z,9.30
2018-01-11T11:53:26.964Z,7.40
2018-01-11T11:55:54.932Z,8.77
2018-01-11T11:58:22.745Z,8.80
2018-01-11T12:00:49.846Z,7.20
2018-01-11T12:03:17.830Z,9.57
2018-01-11T12:05:45.699Z,8.13
2018-01-11T12:08:13.470Z,10.50
2018-01-11T12:10:41.356Z,9.90
2018-01-11T12:13:08.385Z,34.30
2018-01-11T12:15:35.654Z,9.53
2018-01-11T12:18:03.534Z,10.90
2018-01-11T12:20:30.588Z,10.00
2018-01-11T12:22:58.068Z,8.70
2018-01-11T12:25:25.085Z,10.27
2018-01-11T12:27:53.687Z,8.73
2018-01-11T12:30:21.543Z,10.27
2018-01-11T12:32:49.519Z,10.17
2018-01-11T12:35:17.297Z,9.20
2018-01-11T12:37:45.160Z,8.80
2018-01-11T12:40:12.929Z,7.27
2018-01-11T12:42:40.694Z,9.30
2018-01-11T12:45:08.566Z,11.00
2018-01-11T12:47:36.338Z,10.00
2018-01-11T12:50:04.207Z,8.50
2018-01-11T12:52:32.079Z,10.77
2018-01-11T12:54:59.892Z,9.00
2018-01-11T12:57:26.805Z,8.90
2018-01-11T12:59:54.585Z,9.80
2018-01-11T13:02:21.617Z,8.70
2018-01-11T13:04:49.498Z,10.80
2018-01-11T13:07:17.261Z,11.50
2018-01-11T13:09:45.133Z,11.73
2018-01-11T13:12:12.900Z,10.70
2018-01-11T13:14:40.669Z,10.30
2018-01-11T13:17:08.654Z,10.60
2018-01-11T13:19:36.449Z,10.43
2018-01-11T13:22:03.485Z,11.17
2018-01-11T13:24:30.630Z,12.53
2018-01-11T13:26:58.593Z,11.97
2018-01-11T13:29:26.590Z,11.60
2018-01-11T13:31:53.629Z,12.17
2018-01-11T13:34:21.391Z,11.40
2018-01-11T13:36:49.174Z,14.60
2018-01-11T13:39:17.507Z,12.20
2018-01-11T13:41:44.486Z,14.97
2018-01-11T13:44:11.453Z,13.73
2018-01-11T13:46:39.430Z,12.57
2018-01-11T13:49:07.187Z,13.07
2018-01-11T13:51:35.061Z,12.73
2018-01-11T13:54:02.729Z,14.03
2018-01-11T13:56:30.502Z,12.40
2018-01-11T13:58:58.265Z,13.83
2018-01-11T14:01:26.044Z,14.10
2018-01-11T14:03:53.905Z,14.80
2018-01-11T14:06:21.678Z,12.80
2018-01-11T14:08:50.373Z,13.23
2018-01-11T14:11:18.253Z,12.90
2018-01-11T14:13:45.798Z,13.07
2018-01-11T14:16:13.607Z,11.67
2018-01-11T14:18:40.629Z,11.00
2018-01-11T14:21:08.540Z,12.20
2018-01-11T14:23:35.553Z,14.13
2018-01-11T14:26:03.418Z,12.57
2018-01-11T14:28:31.397Z,12.83
2018-01-11T14:30:59.566Z,13.57
2018-01-11T14:33:27.241Z,13.57
2018-01-11T14:35:55.009Z,11.70
2018-01-11T14:38:22.782Z,12.23
2018-01-11T14:40:50.766Z,13.20
2018-01-11T14:43:17.809Z,12.13
2018-01-11T14:45:45.689Z,10.97
2018-01-11T14:48:12.825Z,11.93
2018-01-11T14:50:40.701Z,12.53
2018-01-11T14:53:08.673Z,12.63
2018-01-11T14:55:36.465Z,13.37
2018-01-11T14:58:03.495Z,14.17
2018-01-11T15:00:31.377Z,13.00
2018-01-11T15:02:58.926Z,13.60
2018-01-11T15:05:26.263Z,13.37
2018-01-11T15:07:53.241Z,13.60
2018-01-11T15:10:20.911Z,14.17
2018-01-11T15:12:48.777Z,14.33
2018-01-11T15:15:16.545Z,15.23
2018-01-11T15:17:44.529Z,15.87
2018-01-11T15:20:12.323Z,13.87
2018-01-11T15:22:39.217Z,14.37
2018-01-11T15:25:06.913Z,14.50
2018-01-11T15:27:34.688Z,15.10
2018-01-11T15:30:02.454Z,14.03
2018-01-11T15:32:30.246Z,12.87
2018-01-11T15:34:57.369Z,15.10
2018-01-11T15:37:25.030Z,15.10
2018-01-11T15:39:52.098Z,14.20
2018-01-11T15:42:20.270Z,17.37
2018-01-11T15:44:48.030Z,17.10
2018-01-11T15:47:15.512Z,16.03
2018-01-11T15:49:43.383Z,17.50
2018-01-11T15:52:11.241Z,15.90
2018-01-11T15:54:39.107Z,12.83
2018-01-11T15:57:06.174Z,13.43
2018-01-11T15:59:34.655Z,14.70
2018-01-11T16:02:02.574Z,20.60
2018-01-11T16:04:29.487Z,15.67
2018-01-11T16:06:57.350Z,10.60
2018-01-11T16:09:25.225Z,10.87
2018-01-11T16:11:52.787Z,12.37
2018-01-11T16:14:20.457Z,15.17
2018-01-11T16:16:48.251Z,11.40
2018-01-11T16:19:16.502Z,9.33
2018-01-11T16:21:45.303Z,8.87
2018-01-11T16:24:13.057Z,10.63
2018-01-11T16:26:40.726Z,9.53
2018-01-11T16:29:08.705Z,13.23
2018-01-11T16:31:36.572Z,11.33
2018-01-11T16:34:04.953Z,13.10
2018-01-11T16:36:33.657Z,16.60
2018-01-11T16:39:01.382Z,14.40
2018-01-11T16:41:28.465Z,14.03
2018-01-11T16:43:56.238Z,13.50
2018-01-11T16:46:23.908Z,16.93
2018-01-11T16:48:51.876Z,15.30
2018-01-11T16:51:19.537Z,12.23
2018-01-11T16:53:46.600Z,14.80
2018-01-11T16:56:14.350Z,16.00
2018-01-11T16:58:42.246Z,14.43
2018-01-11T17:01:10.114Z,14.23
2018-01-11T17:03:37.878Z,12.67
2018-01-11T17:06:05.545Z,14.00
2018-01-11T17:08:33.215Z,18.00
2018-01-11T17:11:00.874Z,17.63
2018-01-11T17:13:29.358Z,17.97
2018-01-11T17:15:56.526Z,16.00
2018-01-11T17:18:24.440Z,13.73
2018-01-11T17:20:51.446Z,11.93
2018-01-11T17:23:19.118Z,14.17
2018-01-11T17:25:48.107Z,13.73
2018-01-11T17:28:15.880Z,13.33
2018-01-11T17:30:43.750Z,16.10
2018-01-11T17:33:11.830Z,16.73
2018-01-11T17:35:39.790Z,17.50
2018-01-11T17:38:06.750Z,14.07
2018-01-11T17:40:34.522Z,13.40
2018-01-11T17:43:02.386Z,14.73
2018-01-11T17:45:30.004Z,12.47
2018-01-11T17:47:57.009Z,9.50
2018-01-11T17:50:24.681Z,10.67
2018-01-11T17:52:52.025Z,9.70
2018-01-11T17:55:18.758Z,10.47
2018-01-11T17:57:45.617Z,13.53
2018-01-11T18:00:12.399Z,12.33
2018-01-11T18:02:39.097Z,9.67
2018-01-11T18:05:06.631Z,12.43
2018-01-11T18:07:33.633Z,15.07
2018-01-11T18:10:01.206Z,16.77
2018-01-11T18:12:28.857Z,12.80
2018-01-11T18:14:56.664Z,16.43
2018-01-11T18:17:23.486Z,11.00
2018-01-11T18:19:50.925Z,11.07
2018-01-11T18:22:17.566Z,10.50
2018-01-11T18:24:44.431Z,10.67
2018-01-11T18:27:12.119Z,9.90
2018-01-11T18:29:38.854Z,9.80
2018-01-11T18:32:07.000Z,10.27
2018-01-11T18:34:34.006Z,11.90
2018-01-11T18:37:00.805Z,11.50
2018-01-11T18:39:27.581Z,12.33
2018-01-11T18:41:55.033Z,15.03
2018-01-11T18:44:22.577Z,16.60
2018-01-11T18:46:49.545Z,14.27
2018-01-11T18:49:16.191Z,14.70
2018-01-11T18:51:43.673Z,14.07
2018-01-11T18:54:10.487Z,19.37
2018-01-11T18:56:37.565Z,14.57
2018-01-11T18:59:06.253Z,15.93
2018-01-11T19:01:33.814Z,17.00
2018-01-11T19:04:01.374Z,16.17
2018-01-11T19:06:28.709Z,16.70
2018-01-11T19:08:55.545Z,18.93
2018-01-11T19:11:22.334Z,16.40
2018-01-11T19:13:49.789Z,16.37
2018-01-11T19:16:17.254Z,16.90
2018-01-11T19:18:44.910Z,13.93
2018-01-11T19:21:11.641Z,16.10
2018-01-11T19:23:38.294Z,19.07
2018-01-11T19:26:05.054Z,17.40
2018-01-11T19:28:32.705Z,17.13
2018-01-11T19:30:59.462Z,18.80
2018-01-11T19:33:26.905Z,18.87
2018-01-11T19:35:53.672Z,18.00
2018-01-11T19:38:21.223Z,18.13
2018-01-11T19:40:48.798Z,16.50
2018-01-11T19:43:15.879Z,15.17
2018-01-11T19:45:42.806Z,14.03
2018-01-11T19:48:10.263Z,15.27
2018-01-11T19:50:36.958Z,18.90
2018-01-11T19:53:03.646Z,14.50
2018-01-11T19:55:30.305Z,14.77
2018-01-11T19:57:57.734Z,15.30
2018-01-11T20:00:24.412Z,14.13
2018-01-11T20:02:51.806Z,13.73
2018-01-11T20:05:18.785Z,11.60
2018-01-11T20:07:45.665Z,12.40
2018-01-11T20:10:13.237Z,9.83
2018-01-11T20:12:40.757Z,13.77
2018-01-11T20:15:07.651Z,10.13
2018-01-11T20:17:35.086Z,19.17
2018-01-11T20:20:02.670Z,18.07
2018-01-11T20:22:30.233Z,14.77
2018-01-11T20:24:57.705Z,9.80
2018-01-11T20:27:25.266Z,10.60
2018-01-11T20:29:52.865Z,14.37
2018-01-11T20:32:19.481Z,18.53
2018-01-11T20:34:46.209Z,18.13
2018-01-11T20:37:13.209Z,16.60
2018-01-11T20:39:39.904Z,13.87
2018-01-11T20:42:06.590Z,12.50
2018-01-11T20:44:33.161Z,14.00
2018-01-11T20:46:59.943Z,12.90
2018-01-11T20:49:27.384Z,13.17
2018-01-11T20:51:55.686Z,10.90
2018-01-11T20:54:23.022Z,10.63
2018-01-11T20:56:49.797Z,13.00
2018-01-11T20:59:17.246Z,10.23
2018-01-11T21:01:44.110Z,10.90
2018-01-11T21:04:11.774Z,9.93
2018-01-11T21:06:39.108Z,10.40
2018-01-11T21:09:07.417Z,10.67
2018-01-11T21:11:34.854Z,9.90
2018-01-11T21:14:02.322Z,11.07
2018-01-11T21:16:29.077Z,11.50
2018-01-11T21:18:56.654Z,11.10
2018-01-11T21:21:24.102Z,16.37
2018-01-11T21:23:51.772Z,14.97
2018-01-11T21:26:19.141Z,11.47
2018-01-11T21:28:46.671Z,13.07
2018-01-11T21:31:13.409Z,10.40
2018-01-11T21:33:40.068Z,13.10
2018-01-11T21:36:07.591Z,13.00
2018-01-11T21:38:34.325Z,11.40
2018-01-11T21:41:01.246Z,9.60
2018-01-11T21:43:28.714Z,9.37
2018-01-11T21:45:56.104Z,11.53
2018-01-11T21:48:24.078Z,15.50
2018-01-11T21:50:50.814Z,13.93
2018-01-11T21:53:18.109Z,11.17
2018-01-11T21:55:44.904Z,14.40
2018-01-11T21:58:12.257Z,12.50
2018-01-11T22:00:39.822Z,9.00
2018-01-11T22:03:07.214Z,11.43
2018-01-11T22:05:34.075Z,9.23
2018-01-11T22:08:00.822Z,9.00
2018-01-11T22:10:27.542Z,11.77
2018-01-11T22:12:54.561Z,7.73
2018-01-11T22:15:21.152Z,12.10
2018-01-11T22:17:47.749Z,11.90
2018-01-11T22:20:14.580Z,11.97
2018-01-11T22:22:41.271Z,12.87
2018-01-11T22:25:08.076Z,11.37
2018-01-11T22:27:34.736Z,13.03
2018-01-11T22:30:02.390Z,12.03
2018-01-11T22:32:29.803Z,8.17
2018-01-11T22:34:56.615Z,7.40
2018-01-11T22:37:24.177Z,9.37
2018-01-11T22:39:51.881Z,11.03
2018-01-11T22:42:18.905Z,10.13
2018-01-11T22:44:46.461Z,11.83
2018-01-11T22:47:14.060Z,10.07
2018-01-11T22:49:40.757Z,12.07
2018-01-11T22:52:07.378Z,10.63
2018-01-11T22:54:34.031Z,10.33
2018-01-11T22:57:01.406Z,11.27
2018-01-11T22:59:28.778Z,10.90
2018-01-11T23:01:56.138Z,12.90
2018-01-11T23:04:23.606Z,12.43
2018-01-11T23:06:50.949Z,9.00
2018-01-11T23:09:17.817Z,9.70
2018-01-11T23:11:45.270Z,12.40
2018-01-11T23:14:12.593Z,9.63
2018-01-11T23:16:39.257Z,10.40
2018-01-11T23:19:06.803Z,8.50
2018-01-11T23:21:33.568Z,9.13
2018-01-11T23:24:00.325Z,11.60
2018-01-11T23:26:27.685Z,9.27
2018-01-11T23:28:55.353Z,7.90
2018-01-11T23:31:22.960Z,7.90
2018-01-11T23:33:49.769Z,11.60
2018-01-11T23:36:17.160Z,9.40
2018-01-11T23:38:43.733Z,8.80
2018-01-11T23:41:10.829Z,8.37
2018-01-11T23:43:38.195Z,8.00
2018-01-11T23:46:04.799Z,8.70
2018-01-11T23:48:31.550Z,9.30
2018-01-11T23:50:58.167Z,8.67
2018-01-11T23:53:26.525Z,8.50
2018-01-11T23:55:53.277Z,9.30
2018-01-11T23:58:19.991Z,7.90
